createdAt,value
2018-09-04T00:00:51.233Z,14.82
2018-09-04T00:03:18.745Z,14.85
2018-09-04T00:05:46.206Z,14.85
2018-09-04T00:08:13.604Z,14.86
2018-09-04T00:10:41.093Z,14.83
2018-09-04T00:13:08.562Z,14.83
2018-09-04T00:15:36.043Z,14.86
2018-09-04T00:18:03.789Z,14.88
2018-09-04T00:20:31.417Z,14.91
2018-09-04T00:22:58.938Z,14.54
2018-09-04T00:25:26.365Z,15.04
2018-09-04T00:27:53.784Z,15.11
2018-09-04T00:30:21.289Z,15.15
2018-09-04T00:32:48.737Z,15.20
2018-09-04T00:35:16.289Z,15.23
2018-09-04T00:37:43.804Z,15.26
2018-09-04T00:40:11.482Z,15.28
2018-09-04T00:42:38.937Z,15.29
2018-09-04T00:45:06.536Z,15.25
2018-09-04T00:47:34.005Z,15.24
2018-09-04T00:50:01.507Z,15.19
2018-09-04T00:52:28.954Z,15.18
2018-09-04T00:54:56.369Z,15.20
2018-09-04T00:57:23.846Z,15.24
2018-09-04T00:59:51.317Z,15.26
2018-09-04T01:02:18.820Z,15.29
2018-09-04T01:04:47.301Z,15.31
2018-09-04T01:07:15.090Z,15.36
2018-09-04T01:09:42.558Z,15.37
2018-09-04T01:12:10.047Z,15.40
2018-09-04T01:14:37.509Z,15.41
2018-09-04T01:17:05.262Z,15.39
2018-09-04T01:19:33.012Z,15.27
2018-09-04T01:22:00.520Z,15.22
2018-09-04T01:24:28.045Z,15.21
2018-09-04T01:26:55.501Z,15.14
2018-09-04T01:29:23.093Z,15.07
2018-09-04T01:31:50.601Z,15.05
2018-09-04T01:34:18.018Z,14.99
2018-09-04T01:36:45.492Z,14.96
2018-09-04T01:39:12.993Z,14.98
2018-09-04T01:41:40.669Z,14.90
2018-09-04T01:44:08.238Z,14.78
2018-09-04T01:46:35.791Z,14.69
2018-09-04T01:49:03.330Z,14.66
2018-09-04T01:51:30.799Z,14.61
2018-09-04T01:53:58.249Z,14.58
2018-09-04T01:56:25.759Z,14.58
2018-09-04T01:58:53.241Z,14.62
2018-09-04T02:01:20.848Z,14.66
2018-09-04T02:03:48.331Z,14.72
2018-09-04T02:06:16.098Z,14.77
2018-09-04T02:08:43.586Z,14.83
2018-09-04T02:11:11.028Z,14.60
2018-09-04T02:13:38.468Z,14.93
2018-09-04T02:16:06.059Z,14.96
2018-09-04T02:18:33.472Z,14.98
2018-09-04T02:21:01.112Z,15.01
2018-09-04T02:23:28.593Z,15.03
2018-09-04T02:25:56.027Z,15.02
2018-09-04T02:28:23.519Z,14.95
2018-09-04T02:30:50.955Z,14.90
2018-09-04T02:33:18.500Z,14.87
2018-09-04T02:35:45.995Z,14.75
2018-09-04T02:38:13.435Z,14.68
2018-09-04T02:40:40.973Z,14.67
2018-09-04T02:43:08.606Z,14.69
2018-09-04T02:45:36.076Z,14.69
2018-09-04T02:48:03.562Z,14.71
2018-09-04T02:50:31.028Z,14.70
2018-09-04T02:52:58.565Z,14.61
2018-09-04T02:55:26.003Z,14.55
2018-09-04T02:57:53.470Z,14.55
2018-09-04T03:00:21.018Z,14.58
2018-09-04T03:02:48.568Z,14.56
2018-09-04T03:05:16.015Z,14.60
2018-09-04T03:07:43.491Z,14.62
2018-09-04T03:10:10.964Z,14.65
2018-09-04T03:12:38.382Z,14.55
2018-09-04T03:15:05.975Z,14.65
2018-09-04T03:17:33.531Z,14.65
2018-09-04T03:20:01.008Z,14.65
2018-09-04T03:22:28.759Z,14.64
2018-09-04T03:24:56.291Z,14.63
2018-09-04T03:27:23.792Z,14.62
2018-09-04T03:29:51.303Z,14.61
2018-09-04T03:32:18.763Z,14.58
2018-09-04T03:34:46.212Z,14.55
2018-09-04T03:37:13.748Z,14.52
2018-09-04T03:39:41.268Z,14.50
2018-09-04T03:42:08.712Z,14.49
2018-09-04T03:44:36.265Z,14.48
2018-09-04T03:47:03.861Z,14.45
2018-09-04T03:49:31.315Z,14.41
2018-09-04T03:51:58.810Z,14.37
2018-09-04T03:54:26.274Z,14.35
2018-09-04T03:56:53.663Z,14.33
2018-09-04T03:59:21.157Z,14.33
2018-09-04T04:01:48.600Z,14.32
2018-09-04T04:04:16.074Z,14.31
2018-09-04T04:06:43.674Z,14.29
2018-09-04T04:09:11.448Z,14.28
2018-09-04T04:11:39.069Z,14.27
2018-09-04T04:14:06.762Z,14.26
2018-09-04T04:16:34.225Z,14.26
2018-09-04T04:19:01.683Z,14.24
2018-09-04T04:21:29.227Z,14.23
2018-09-04T04:23:57.101Z,14.22
2018-09-04T04:26:24.466Z,14.19
2018-09-04T04:28:52.015Z,14.19
2018-09-04T04:31:19.516Z,14.18
2018-09-04T04:33:47.023Z,14.17
2018-09-04T04:36:14.528Z,14.17
2018-09-04T04:38:41.981Z,14.16
2018-09-04T04:41:09.430Z,14.15
2018-09-04T04:43:36.964Z,14.12
2018-09-04T04:46:04.777Z,14.12
2018-09-04T04:48:32.286Z,14.12
2018-09-04T04:50:59.848Z,14.13
2018-09-04T04:53:27.316Z,14.13
2018-09-04T04:55:54.813Z,14.14
2018-09-04T04:58:22.252Z,14.13
2018-09-04T05:00:49.748Z,14.15
2018-09-04T05:03:17.211Z,14.16
2018-09-04T05:05:44.729Z,14.15
2018-09-04T05:08:12.149Z,14.14
2018-09-04T05:10:39.595Z,14.14
2018-09-04T05:13:07.150Z,14.14
2018-09-04T05:15:34.667Z,14.14
2018-09-04T05:18:02.153Z,14.12
2018-09-04T05:20:29.884Z,14.10
2018-09-04T05:22:57.354Z,14.08
2018-09-04T05:25:24.868Z,14.06
2018-09-04T05:27:52.326Z,14.05
2018-09-04T05:30:19.848Z,14.02
2018-09-04T05:33:20.729Z,14.04
2018-09-04T05:35:52.076Z,14.05
2018-09-04T05:38:19.508Z,14.06
2018-09-04T05:40:47.023Z,14.07
2018-09-04T05:43:18.090Z,14.08
2018-09-04T05:45:45.580Z,14.09
2018-09-04T05:48:14.818Z,14.11
2018-09-04T05:50:42.364Z,14.12
2018-09-04T05:53:09.801Z,14.14
2018-09-04T05:55:37.296Z,14.15
2018-09-04T05:58:04.815Z,14.17
2018-09-04T06:00:37.655Z,14.19
2018-09-04T06:03:05.185Z,14.21
2018-09-04T06:05:32.622Z,14.23
2018-09-04T06:08:00.124Z,14.24
2018-09-04T06:10:27.613Z,14.28
2018-09-04T06:12:55.108Z,14.29
2018-09-04T06:15:22.594Z,14.31
2018-09-04T06:17:50.101Z,14.31
2018-09-04T06:20:17.605Z,14.34
2018-09-04T06:22:45.105Z,14.35
2018-09-04T06:25:12.632Z,14.37
2018-09-04T06:27:40.250Z,14.38
2018-09-04T06:30:07.989Z,14.39
2018-09-04T06:32:35.405Z,14.40
2018-09-04T06:35:02.897Z,14.44
2018-09-04T06:37:30.366Z,14.28
2018-09-04T06:39:58.758Z,14.11
2018-09-04T06:42:26.235Z,14.53
2018-09-04T06:44:53.735Z,14.56
2018-09-04T06:47:21.184Z,14.57
2018-09-04T06:49:49.164Z,14.60
2018-09-04T06:52:16.650Z,14.64
2018-09-04T06:54:44.135Z,14.65
2018-09-04T06:57:11.608Z,14.67
2018-09-04T06:59:39.060Z,14.70
2018-09-04T07:02:06.544Z,14.74
2018-09-04T07:04:34.082Z,14.79
2018-09-04T07:07:01.564Z,14.82
2018-09-04T07:09:29.002Z,14.88
2018-09-04T07:11:56.538Z,14.93
2018-09-04T07:14:24.036Z,14.97
2018-09-04T07:16:51.562Z,15.02
2018-09-04T07:19:19.801Z,15.06
2018-09-04T07:21:47.402Z,15.10
2018-09-04T07:24:15.405Z,15.15
2018-09-04T07:26:43.419Z,15.18
2018-09-04T07:29:11.124Z,15.25
2018-09-04T07:31:38.574Z,15.30
2018-09-04T07:34:06.066Z,15.37
2018-09-04T07:36:33.745Z,15.42
2018-09-04T07:39:01.253Z,15.46
2018-09-04T07:41:28.688Z,15.50
2018-09-04T07:43:56.216Z,15.54
2018-09-04T07:46:23.654Z,15.61
2018-09-04T07:48:51.418Z,15.65
2018-09-04T07:51:19.162Z,15.71
2018-09-04T07:53:46.799Z,15.80
2018-09-04T07:56:14.891Z,15.87
2018-09-04T07:58:42.443Z,15.95
2018-09-04T08:01:09.880Z,16.03
2018-09-04T08:03:37.376Z,16.11
2018-09-04T08:06:05.172Z,16.19
2018-09-04T08:08:32.734Z,16.30
2018-09-04T08:11:00.252Z,16.41
2018-09-04T08:13:27.695Z,16.50
2018-09-04T08:15:55.156Z,16.57
2018-09-04T08:18:22.589Z,16.61
2018-09-04T08:20:50.160Z,16.70
2018-09-04T08:23:17.645Z,16.75
2018-09-04T08:25:45.079Z,16.82
2018-09-04T08:28:12.667Z,16.87
2018-09-04T08:30:40.288Z,16.91
2018-09-04T08:33:07.808Z,16.98
2018-09-04T08:35:35.313Z,17.05
2018-09-04T08:38:02.794Z,17.10
2018-09-04T08:40:31.878Z,17.17
2018-09-04T08:42:59.479Z,17.24
2018-09-04T08:45:26.984Z,17.33
2018-09-04T08:47:54.478Z,17.38
2018-09-04T08:50:21.946Z,17.45
2018-09-04T08:52:49.730Z,17.51
2018-09-04T08:55:17.283Z,17.58
2018-09-04T08:57:44.846Z,17.67
2018-09-04T09:00:13.633Z,17.75
2018-09-04T09:02:41.086Z,17.60
2018-09-04T09:05:08.576Z,17.94
2018-09-04T09:07:36.080Z,18.04
2018-09-04T09:10:03.720Z,18.15
2018-09-04T09:12:31.202Z,18.23
2018-09-04T09:14:58.773Z,18.32
2018-09-04T09:17:26.227Z,18.38
2018-09-04T09:19:53.817Z,18.46
2018-09-04T09:22:21.276Z,18.51
2018-09-04T09:24:48.745Z,18.58
2018-09-04T09:27:16.306Z,18.64
2018-09-04T09:29:43.752Z,18.71
2018-09-04T09:32:11.484Z,18.78
2018-09-04T09:34:39.034Z,18.84
2018-09-04T09:37:06.594Z,18.93
2018-09-04T09:39:33.999Z,19.00
2018-09-04T09:42:01.481Z,19.07
2018-09-04T09:44:28.913Z,19.16
2018-09-04T09:47:02.069Z,19.28
2018-09-04T09:49:30.445Z,19.44
2018-09-04T09:51:57.913Z,19.63
2018-09-04T09:54:25.626Z,19.84
2018-09-04T09:56:53.102Z,20.08
2018-09-04T09:59:20.626Z,20.27
2018-09-04T10:01:57.406Z,20.41
2018-09-04T10:04:25.740Z,20.47
2018-09-04T10:06:53.244Z,20.63
2018-09-04T10:09:20.921Z,20.92
2018-09-04T10:11:48.540Z,21.25
2018-09-04T10:14:16.095Z,21.55
2018-09-04T10:16:43.594Z,21.83
2018-09-04T10:19:11.085Z,22.09
2018-09-04T10:21:38.565Z,22.37
2018-09-04T10:24:06.010Z,22.61
2018-09-04T10:26:33.606Z,22.75
2018-09-04T10:29:01.102Z,22.80
2018-09-04T10:31:28.568Z,22.70
2018-09-04T10:33:56.237Z,22.52
2018-09-04T10:36:23.776Z,22.37
2018-09-04T10:38:55.738Z,22.27
2018-09-04T10:41:23.172Z,22.14
2018-09-04T10:43:50.566Z,22.01
2018-09-04T10:46:18.034Z,21.94
2018-09-04T10:48:45.485Z,21.90
2018-09-04T10:51:12.955Z,21.85
2018-09-04T10:53:40.422Z,21.77
2018-09-04T10:56:08.241Z,21.69
2018-09-04T10:58:35.715Z,21.64
2018-09-04T11:01:03.334Z,21.57
2018-09-04T11:03:30.803Z,21.51
2018-09-04T11:05:58.302Z,21.44
2018-09-04T11:08:25.793Z,21.41
2018-09-04T11:10:53.280Z,21.41
2018-09-04T11:13:20.822Z,21.52
2018-09-04T11:15:48.291Z,21.71
2018-09-04T11:18:15.777Z,21.97
2018-09-04T11:20:43.271Z,22.24
2018-09-04T11:23:10.771Z,22.42
2018-09-04T11:25:38.341Z,22.49
2018-09-04T11:28:06.185Z,22.52
2018-09-04T11:30:33.683Z,22.61
2018-09-04T11:33:01.098Z,22.84
2018-09-04T11:35:28.850Z,22.96
2018-09-04T11:37:56.325Z,22.99
2018-09-04T11:40:23.799Z,22.97
2018-09-04T11:43:54.031Z,22.91
2018-09-04T11:46:21.503Z,22.77
2018-09-04T11:48:49.042Z,22.68
2018-09-04T11:51:16.532Z,22.58
2018-09-04T11:53:44.080Z,22.49
2018-09-04T11:56:11.746Z,22.45
2018-09-04T11:58:39.147Z,22.39
2018-09-04T12:01:09.625Z,22.35
2018-09-04T12:03:37.214Z,22.29
2018-09-04T12:06:04.694Z,22.24
2018-09-04T12:08:32.333Z,22.20
2018-09-04T12:10:59.806Z,22.18
2018-09-04T12:13:30.641Z,22.15
2018-09-04T12:15:58.581Z,22.12
2018-09-04T12:18:26.244Z,22.04
2018-09-04T12:20:54.991Z,21.97
2018-09-04T12:23:22.390Z,21.89
2018-09-04T12:25:51.388Z,21.83
2018-09-04T12:28:19.016Z,21.79
2018-09-04T12:30:46.469Z,21.76
2018-09-04T12:33:13.955Z,21.74
2018-09-04T12:35:41.650Z,21.69
2018-09-04T12:38:25.324Z,21.64
2018-09-04T12:40:52.832Z,21.60
2018-09-04T12:43:20.303Z,21.57
2018-09-04T12:45:56.321Z,21.54
2018-09-04T12:48:28.031Z,21.51
2018-09-04T12:50:56.522Z,21.45
2018-09-04T12:53:24.622Z,21.40
2018-09-04T12:55:52.197Z,21.36
2018-09-04T12:58:19.827Z,21.33
2018-09-04T13:00:48.415Z,21.33
2018-09-04T13:03:17.195Z,21.30
2018-09-04T13:05:44.695Z,21.30
2018-09-04T13:08:13.049Z,21.34
2018-09-04T13:10:40.578Z,21.36
2018-09-04T13:13:08.137Z,21.38
2018-09-04T13:15:35.663Z,21.39
2018-09-04T13:18:03.226Z,21.34
2018-09-04T13:20:30.666Z,21.29
2018-09-04T13:22:58.176Z,21.26
2018-09-04T13:25:25.710Z,21.22
2018-09-04T13:27:53.144Z,21.20
2018-09-04T13:30:20.654Z,21.16
2018-09-04T13:32:48.151Z,21.12
2018-09-04T13:35:15.619Z,21.09
2018-09-04T13:37:43.472Z,21.07
2018-09-04T13:40:10.958Z,21.07
2018-09-04T13:42:38.463Z,21.10
2018-09-04T13:45:06.100Z,21.10
2018-09-04T13:47:34.145Z,21.09
2018-09-04T13:50:01.596Z,21.10
2018-09-04T13:52:29.967Z,21.06
2018-09-04T13:54:57.536Z,21.03
2018-09-04T13:57:25.548Z,21.02
2018-09-04T13:59:53.257Z,21.02
2018-09-04T14:02:20.731Z,21.01
2018-09-04T14:04:48.231Z,20.98
2018-09-04T14:07:15.706Z,20.90
2018-09-04T14:09:43.467Z,20.84
2018-09-04T14:12:10.987Z,20.78
2018-09-04T14:14:38.395Z,20.71
2018-09-04T14:17:08.336Z,20.67
2018-09-04T14:19:35.796Z,20.65
2018-09-04T14:22:03.278Z,20.64
2018-09-04T14:24:30.854Z,20.63
2018-09-04T14:26:58.353Z,20.60
2018-09-04T14:29:54.396Z,20.57
2018-09-04T14:31:53.529Z,20.55
2018-09-04T14:34:21.048Z,20.58
2018-09-04T14:36:48.703Z,20.61
2018-09-04T14:39:16.295Z,20.66
2018-09-04T14:41:43.766Z,20.68
2018-09-04T14:44:11.250Z,20.67
2018-09-04T14:46:38.687Z,20.64
2018-09-04T14:49:06.297Z,20.59
2018-09-04T14:51:33.794Z,20.56
2018-09-04T14:54:01.186Z,20.52
2018-09-04T14:56:28.711Z,20.40
2018-09-04T14:58:56.478Z,20.35
2018-09-04T15:01:24.176Z,20.30
2018-09-04T15:03:51.623Z,20.24
2018-09-04T15:06:19.090Z,20.20
2018-09-04T15:08:46.610Z,20.11
2018-09-04T15:11:14.103Z,20.11
2018-09-04T15:13:41.528Z,20.08
2018-09-04T15:16:09.074Z,20.08
2018-09-04T15:18:36.530Z,20.07
2018-09-04T15:21:04.037Z,20.02
2018-09-04T15:23:31.481Z,19.97
2018-09-04T15:25:58.994Z,19.93
2018-09-04T15:28:26.546Z,19.88
2018-09-04T15:30:54.093Z,19.80
2018-09-04T15:33:21.569Z,19.79
2018-09-04T15:35:49.018Z,19.78
2018-09-04T15:38:16.485Z,19.75
2018-09-04T15:40:44.139Z,19.66
2018-09-04T15:43:11.590Z,19.62
2018-09-04T15:45:39.091Z,19.60
2018-09-04T15:48:06.618Z,19.58
2018-09-04T15:50:34.030Z,19.55
2018-09-04T15:53:01.468Z,19.51
2018-09-04T15:55:29.004Z,19.47
2018-09-04T15:57:56.492Z,19.42
2018-09-04T16:00:24.022Z,19.41
2018-09-04T16:02:51.541Z,19.34
2018-09-04T16:05:19.064Z,19.20
2018-09-04T16:07:46.613Z,19.13
2018-09-04T16:10:14.129Z,19.08
2018-09-04T16:12:41.613Z,18.98
2018-09-04T16:15:09.090Z,18.87
2018-09-04T16:17:36.577Z,18.79
2018-09-04T16:20:04.106Z,18.74
2018-09-04T16:22:31.517Z,18.73
2018-09-04T16:24:59.006Z,18.68
2018-09-04T16:27:26.444Z,18.60
2018-09-04T16:29:53.957Z,18.51
2018-09-04T16:32:21.442Z,18.45
2018-09-04T16:34:49.088Z,18.44
2018-09-04T16:37:16.494Z,18.45
2018-09-04T16:39:43.985Z,18.45
2018-09-04T16:42:11.722Z,18.46
2018-09-04T16:44:39.321Z,18.42
2018-09-04T16:47:06.769Z,18.37
2018-09-04T16:49:34.237Z,18.27
2018-09-04T16:52:01.914Z,18.15
2018-09-04T16:54:29.656Z,18.04
2018-09-04T16:56:58.394Z,18.00
2018-09-04T16:59:25.892Z,17.64
2018-09-04T17:01:53.385Z,17.91
2018-09-04T17:04:21.016Z,17.88
2018-09-04T17:06:48.487Z,17.86
2018-09-04T17:09:16.146Z,17.88
2018-09-04T17:11:43.744Z,17.86
2018-09-04T17:14:11.285Z,17.82
2018-09-04T17:16:38.792Z,17.80
2018-09-04T17:19:06.528Z,17.78
2018-09-04T17:21:34.164Z,17.75
2018-09-04T17:24:01.593Z,17.73
2018-09-04T17:26:29.093Z,17.70
2018-09-04T17:28:56.600Z,17.59
2018-09-04T17:31:24.215Z,17.56
2018-09-04T17:33:51.696Z,17.56
2018-09-04T17:36:19.356Z,17.55
2018-09-04T17:38:47.148Z,17.56
2018-09-04T17:41:14.642Z,17.57
2018-09-04T17:43:42.365Z,17.58
2018-09-04T17:46:09.900Z,17.59
2018-09-04T17:48:37.390Z,17.60
2018-09-04T17:51:04.985Z,17.57
2018-09-04T17:53:32.484Z,17.52
2018-09-04T17:55:59.917Z,17.49
2018-09-04T17:58:27.376Z,17.45
2018-09-04T18:00:54.948Z,17.44
2018-09-04T18:03:22.458Z,17.43
2018-09-04T18:05:50.039Z,17.45
2018-09-04T18:08:17.566Z,17.48
2018-09-04T18:10:44.966Z,17.50
2018-09-04T18:13:12.436Z,17.47
2018-09-04T18:15:39.918Z,17.45
2018-09-04T18:18:07.353Z,17.43
2018-09-04T18:20:34.835Z,17.44
2018-09-04T18:23:02.291Z,17.45
2018-09-04T18:25:30.034Z,17.44
2018-09-04T18:27:57.515Z,17.45
2018-09-04T18:30:24.985Z,17.46
2018-09-04T18:32:52.432Z,17.44
2018-09-04T18:35:19.905Z,17.43
2018-09-04T18:37:47.390Z,17.43
2018-09-04T18:40:14.873Z,17.44
2018-09-04T18:42:42.369Z,17.40
2018-09-04T18:45:14.768Z,17.37
2018-09-04T18:47:42.272Z,17.35
2018-09-04T18:50:09.764Z,17.35
2018-09-04T18:52:37.291Z,17.27
2018-09-04T18:55:04.815Z,17.19
2018-09-04T18:57:32.267Z,17.10
2018-09-04T18:59:59.847Z,17.08
2018-09-04T19:02:27.302Z,17.07
2018-09-04T19:04:54.776Z,17.11
2018-09-04T19:07:22.418Z,17.12
2018-09-04T19:09:49.842Z,17.15
2018-09-04T19:12:17.347Z,17.17
2018-09-04T19:14:44.781Z,17.19
2018-09-04T19:17:12.222Z,17.18
2018-09-04T19:19:39.779Z,17.18
2018-09-04T19:22:07.227Z,17.18
2018-09-04T19:24:34.796Z,17.19
2018-09-04T19:27:02.328Z,17.17
2018-09-04T19:29:29.765Z,17.18
2018-09-04T19:31:57.248Z,17.17
2018-09-04T19:34:24.761Z,16.78
2018-09-04T19:36:52.217Z,17.16
2018-09-04T19:39:19.746Z,17.16
2018-09-04T19:41:47.226Z,17.15
2018-09-04T19:44:14.629Z,17.13
2018-09-04T19:46:42.279Z,17.11
2018-09-04T19:49:09.811Z,17.09
2018-09-04T19:51:37.298Z,17.08
2018-09-04T19:54:04.781Z,17.07
2018-09-04T19:56:32.317Z,17.04
2018-09-04T19:58:59.860Z,17.04
2018-09-04T20:01:27.321Z,17.03
2018-09-04T20:03:54.809Z,16.98
2018-09-04T20:06:22.358Z,16.95
2018-09-04T20:08:50.111Z,16.92
2018-09-04T20:11:17.560Z,16.89
2018-09-04T20:13:45.002Z,16.86
2018-09-04T20:16:12.521Z,16.84
2018-09-04T20:18:39.978Z,16.80
2018-09-04T20:21:07.438Z,16.79
2018-09-04T20:23:35.019Z,16.76
2018-09-04T20:26:02.447Z,16.75
2018-09-04T20:28:29.904Z,16.73
2018-09-04T20:30:57.344Z,16.73
2018-09-04T20:33:24.779Z,16.71
2018-09-04T20:35:52.421Z,16.70
2018-09-04T20:38:19.847Z,16.69
2018-09-04T20:40:47.292Z,16.66
2018-09-04T20:43:14.732Z,16.61
2018-09-04T20:45:42.182Z,16.58
2018-09-04T20:48:09.850Z,16.56
2018-09-04T20:50:37.413Z,16.53
2018-09-04T20:53:05.325Z,16.47
2018-09-04T20:55:32.838Z,16.44
2018-09-04T20:58:11.528Z,16.44
2018-09-04T21:00:50.148Z,16.41
2018-09-04T21:03:28.860Z,16.39
2018-09-04T21:06:07.552Z,16.37
2018-09-04T21:08:46.924Z,16.37
2018-09-04T21:11:14.584Z,16.32
2018-09-04T21:13:42.041Z,16.35
2018-09-04T21:16:09.544Z,16.36
2018-09-04T21:18:37.082Z,16.38
2018-09-04T21:21:04.874Z,16.38
2018-09-04T21:23:32.350Z,16.39
2018-09-04T21:25:59.836Z,16.38
2018-09-04T21:28:27.318Z,16.38
2018-09-04T21:30:54.795Z,16.35
2018-09-04T21:33:22.216Z,16.35
2018-09-04T21:35:49.683Z,16.33
2018-09-04T21:38:17.420Z,16.32
2018-09-04T21:40:44.932Z,16.31
2018-09-04T21:43:12.371Z,16.30
2018-09-04T21:45:39.813Z,16.29
2018-09-04T21:48:07.254Z,16.28
2018-09-04T21:50:34.863Z,16.27
2018-09-04T21:53:02.307Z,16.26
2018-09-04T21:55:29.737Z,16.25
2018-09-04T21:57:57.234Z,16.22
2018-09-04T22:00:24.753Z,16.21
2018-09-04T22:02:52.412Z,16.19
2018-09-04T22:05:19.946Z,16.17
2018-09-04T22:07:47.396Z,16.15
2018-09-04T22:10:14.862Z,16.12
2018-09-04T22:12:42.393Z,16.10
2018-09-04T22:15:09.866Z,16.06
2018-09-04T22:17:37.816Z,16.05
2018-09-04T22:20:05.320Z,16.04
2018-09-04T22:22:32.757Z,16.01
2018-09-04T22:25:00.245Z,15.99
2018-09-04T22:27:27.738Z,15.94
2018-09-04T22:29:55.207Z,15.91
2018-09-04T22:32:22.652Z,15.89
2018-09-04T22:34:50.189Z,15.87
2018-09-04T22:37:17.626Z,15.84
2018-09-04T22:39:45.066Z,15.82
2018-09-04T22:42:12.559Z,15.79
2018-09-04T22:44:40.035Z,15.78
2018-09-04T22:47:07.535Z,15.76
2018-09-04T22:49:35.042Z,15.73
2018-09-04T22:52:02.753Z,15.73
2018-09-04T22:54:30.206Z,15.70
2018-09-04T22:56:57.674Z,15.68
2018-09-04T22:59:25.813Z,15.66
2018-09-04T23:01:53.424Z,15.65
2018-09-04T23:04:21.037Z,15.62
2018-09-04T23:07:51.148Z,15.60
2018-09-04T23:10:18.630Z,15.57
2018-09-04T23:12:46.352Z,15.54
2018-09-04T23:15:13.809Z,15.53
2018-09-04T23:17:41.283Z,15.51
2018-09-04T23:20:08.773Z,15.49
2018-09-04T23:22:36.214Z,15.47
2018-09-04T23:25:03.706Z,15.45
2018-09-04T23:27:31.175Z,15.42
2018-09-04T23:29:58.658Z,15.40
2018-09-04T23:32:26.101Z,15.38
2018-09-04T23:34:53.572Z,15.36
2018-09-04T23:37:21.095Z,15.34
2018-09-04T23:39:48.564Z,15.31
2018-09-04T23:42:15.995Z,15.31
2018-09-04T23:44:43.480Z,15.26
2018-09-04T23:47:10.879Z,15.20
2018-09-04T23:49:38.398Z,15.18
2018-09-04T23:52:06.089Z,15.16
2018-09-04T23:54:33.579Z,15.15
2018-09-04T23:57:01.050Z,15.14
2018-09-04T23:59:28.571Z,15.13
